Time;durP1;ratioP1;P1;durP2;ratioP2;P2;SDS_P1;SDS_P2;PMS_P1;PMS_P2;Temp;Humidity;BMP_temperature;BMP_pressure;BME280_temperature;BME280_humidity;BME280_pressure;Samples;Min_cycle;Max_cycle;Signal;HPM_P1;HPM_P2
2021/12/14 00:01:36;;;;;;;0.15;0.15;;;8.10;99.90;;;;;;4980308;28;20046;-64
2021/12/14 00:04:12;;;;;;;0.10;0.10;;;8.00;99.90;;;;;;4989017;28;20516;-64
2021/12/14 00:06:40;;;;;;;0.08;0.08;;;8.00;99.90;;;;;;4979553;28;20173;-63
2021/12/14 00:09:09;;;;;;;0.10;0.10;;;8.20;99.90;;;;;;4962357;28;20053;-63
2021/12/14 00:16:46;;;;;;;0.00;0.00;;;8.10;99.90;;;;;;4980104;28;20069;-64
2021/12/14 00:19:12;;;;;;;0.10;0.10;;;8.70;99.90;;;;;;4979298;28;20053;-63
2021/12/14 00:21:40;;;;;;;0.20;0.20;;;8.10;99.90;;;;;;4979634;28;20051;-63
2021/12/14 00:24:11;;;;;;;0.00;0.00;;;8.10;99.90;;;;;;4980045;28;20043;-63
2021/12/14 00:26:39;;;;;;;0.00;0.00;;;8.10;99.90;;;;;;4977957;28;20084;-63
2021/12/14 00:29:05;;;;;;;0.00;0.00;;;8.00;99.90;;;;;;4979647;28;20753;-63
2021/12/14 00:31:33;;;;;;;0.55;0.55;;;8.10;99.90;;;;;;4978903;28;20093;-64
2021/12/14 00:34:02;;;;;;;0.00;0.00;;;8.10;99.90;;;;;;4978353;28;20086;-63
2021/12/14 00:36:27;;;;;;;0.00;0.00;;;8.50;99.90;;;;;;4977645;28;20038;-63
2021/12/14 00:38:56;;;;;;;0.15;0.10;;;8.10;99.90;;;;;;4979566;28;20500;-63
2021/12/14 00:41:27;;;;;;;0.00;0.00;;;8.10;99.90;;;;;;4979369;28;20048;-64
2021/12/14 00:43:53;;;;;;;0.00;0.00;;;8.20;99.90;;;;;;4977013;28;20050;-63
2021/12/14 00:46:19;;;;;;;0.00;0.00;;;8.40;99.90;;;;;;4977866;28;20687;-63
2021/12/14 00:48:47;;;;;;;0.10;0.10;;;9.40;99.90;;;;;;4979502;28;20050;-65
2021/12/14 00:51:13;;;;;;;0.00;0.00;;;8.10;99.90;;;;;;4978315;28;20539;-64
2021/12/14 00:53:40;;;;;;;0.00;0.00;;;8.10;99.90;;;;;;4977433;28;20085;-65
2021/12/14 00:56:10;;;;;;;0.00;0.00;;;8.40;99.90;;;;;;4979199;28;20085;-63
2021/12/14 00:58:36;;;;;;;0.00;0.00;;;8.10;99.90;;;;;;4979287;28;20109;-63
2021/12/14 01:01:13;;;;;;;0.00;0.00;;;9.00;99.90;;;;;;4978458;28;20046;-63
2021/12/14 01:03:42;;;;;;;0.20;0.20;;;8.30;99.90;;;;;;4986103;28;20038;-63
2021/12/14 01:06:10;;;;;;;0.00;0.00;;;9.40;99.90;;;;;;4981878;28;20121;-63
2021/12/14 01:08:40;;;;;;;0.45;0.40;;;8.00;99.90;;;;;;4977401;28;20050;-62
2021/12/14 01:11:40;;;;;;;0.00;0.00;;;8.00;99.90;;;;;;4978847;28;20054;-63
2021/12/14 01:14:16;;;;;;;0.75;0.55;;;9.20;99.90;;;;;;4971556;28;20054;-63
2021/12/14 01:16:52;;;;;;;0.10;0.10;;;8.00;99.90;;;;;;4978980;28;20183;-63
2021/12/14 01:19:26;;;;;;;0.10;0.10;;;8.00;99.90;;;;;;4976999;28;20077;-64
2021/12/14 01:22:19;;;;;;;0.00;0.00;;;8.00;99.90;;;;;;4978047;28;20142;-64
2021/12/14 01:25:03;;;;;;;0.20;0.20;;;8.00;99.90;;;;;;4978189;28;20057;-63
2021/12/14 01:27:49;;;;;;;0.20;0.10;;;8.00;99.90;;;;;;4979447;28;20426;-63
2021/12/14 01:30:24;;;;;;;0.43;0.43;;;8.00;99.90;;;;;;4979067;28;20350;-63
2021/12/14 01:32:52;;;;;;;0.20;0.20;;;8.00;99.90;;;;;;4978690;28;20055;-63
2021/12/14 01:35:28;;;;;;;0.10;0.10;;;8.00;99.90;;;;;;4978249;28;20039;-63
2021/12/14 01:38:05;;;;;;;0.10;0.10;;;8.00;99.90;;;;;;4980878;28;20051;-63
2021/12/14 01:40:53;;;;;;;0.10;0.10;;;8.00;99.90;;;;;;4983421;28;20052;-63
2021/12/14 01:43:30;;;;;;;0.00;0.00;;;8.60;99.90;;;;;;4981526;28;20117;-63
2021/12/14 01:45:58;;;;;;;0.00;0.00;;;8.00;99.90;;;;;;4982949;28;20038;-63
2021/12/14 01:48:24;;;;;;;0.00;0.00;;;9.20;99.90;;;;;;4980668;28;20061;-63
2021/12/14 01:50:56;;;;;;;0.00;0.00;;;8.00;99.90;;;;;;4997201;28;20051;-63
2021/12/14 01:53:24;;;;;;;0.52;0.43;;;8.00;99.90;;;;;;4982332;28;20121;-62
2021/12/14 01:55:54;;;;;;;0.08;0.08;;;8.00;99.90;;;;;;4980415;28;20054;-63
2021/12/14 01:58:31;;;;;;;0.10;0.10;;;8.20;99.90;;;;;;4982333;28;20046;-63
2021/12/14 02:01:04;;;;;;;0.00;0.00;;;8.00;99.90;;;;;;4993769;23;20516;-63
2021/12/14 02:03:36;;;;;;;0.00;0.00;;;8.00;99.90;;;;;;5012571;28;20121;-63
2021/12/14 02:06:04;;;;;;;0.10;0.10;;;8.00;99.90;;;;;;5005630;28;20041;-63
2021/12/14 02:08:33;;;;;;;0.15;0.15;;;7.90;99.90;;;;;;5002577;28;20073;-63
2021/12/14 02:11:02;;;;;;;0.13;0.13;;;7.90;99.90;;;;;;5001299;28;20045;-62
2021/12/14 02:13:41;;;;;;;0.13;0.13;;;7.90;99.90;;;;;;5002351;28;20377;-63
2021/12/14 02:16:09;;;;;;;0.00;0.00;;;8.00;99.90;;;;;;5000476;28;20042;-63
2021/12/14 02:18:36;;;;;;;0.00;0.00;;;8.60;99.90;;;;;;5002088;28;20050;-63
2021/12/14 02:21:09;;;;;;;0.30;0.30;;;8.00;99.90;;;;;;5001142;28;20124;-63
2021/12/14 02:23:39;;;;;;;0.52;0.52;;;8.10;99.90;;;;;;5002039;28;20046;-62
2021/12/14 02:26:08;;;;;;;0.00;0.00;;;8.00;99.90;;;;;;5001080;28;20037;-63
2021/12/14 02:28:34;;;;;;;0.20;0.20;;;7.90;99.90;;;;;;5002036;28;20210;-63
2021/12/14 02:31:03;;;;;;;0.00;0.00;;;7.90;99.90;;;;;;5002195;28;20049;-62
2021/12/14 02:33:32;;;;;;;0.00;0.00;;;7.90;99.90;;;;;;5001234;28;20721;-63
2021/12/14 02:36:00;;;;;;;0.00;0.00;;;7.90;99.90;;;;;;5000043;28;20057;-63
2021/12/14 02:38:26;;;;;;;0.00;0.00;;;8.30;99.90;;;;;;5001592;28;20767;-62
2021/12/14 02:41:01;;;;;;;0.05;0.05;;;8.00;99.90;;;;;;5000718;28;20461;-63
2021/12/14 02:43:45;;;;;;;0.98;0.90;;;7.90;99.90;;;;;;5001536;28;20448;-63
2021/12/14 02:46:20;;;;;;;0.25;0.25;;;7.90;99.90;;;;;;5001314;28;20120;-62
2021/12/14 02:48:48;;;;;;;0.00;0.00;;;7.90;99.90;;;;;;4999966;28;20037;-63
2021/12/14 02:51:28;;;;;;;0.10;0.10;;;8.60;99.90;;;;;;5000487;28;20054;-63
2021/12/14 02:54:03;;;;;;;0.00;0.00;;;7.80;99.90;;;;;;5000621;28;20053;-63
2021/12/14 02:56:31;;;;;;;0.20;0.20;;;7.80;99.90;;;;;;5001696;28;20125;-62
2021/12/14 02:59:03;;;;;;;0.65;0.65;;;7.70;99.90;;;;;;5001056;28;20053;-62
2021/12/14 03:01:30;;;;;;;0.45;0.35;;;8.10;99.90;;;;;;4999072;28;20128;-63
2021/12/14 03:04:04;;;;;;;0.00;0.00;;;7.70;99.90;;;;;;5010438;28;20053;-63
2021/12/14 03:06:31;;;;;;;0.28;0.28;;;7.70;99.90;;;;;;5001743;28;20049;-63
2021/12/14 03:09:09;;;;;;;0.00;0.00;;;7.70;99.90;;;;;;4998719;28;20053;-63
2021/12/14 03:11:37;;;;;;;0.22;0.20;;;7.70;99.90;;;;;;5001130;28;20108;-63
2021/12/14 03:14:03;;;;;;;0.00;0.00;;;9.10;99.90;;;;;;5000660;28;20056;-63
2021/12/14 03:16:33;;;;;;;0.00;0.00;;;8.80;99.90;;;;;;5000462;28;20065;-62
2021/12/14 03:19:00;;;;;;;0.17;0.13;;;7.70;99.90;;;;;;5001349;28;20125;-63
2021/12/14 03:21:35;;;;;;;0.40;0.40;;;8.60;99.90;;;;;;5000207;28;20050;-63
2021/12/14 03:24:07;;;;;;;0.10;0.10;;;7.80;99.90;;;;;;4999012;28;20500;-62
2021/12/14 03:26:35;;;;;;;2.08;0.73;;;7.70;99.90;;;;;;5000870;28;20056;-63
2021/12/14 03:29:10;;;;;;;0.00;0.00;;;7.70;99.90;;;;;;5000998;28;20599;-63
2021/12/14 03:31:40;;;;;;;0.00;0.00;;;7.80;99.90;;;;;;5000165;28;20055;-63
2021/12/14 03:34:14;;;;;;;0.00;0.00;;;7.70;99.90;;;;;;5000607;28;20048;-63
2021/12/14 03:36:44;;;;;;;0.10;0.10;;;7.70;99.90;;;;;;4999910;28;20700;-63
2021/12/14 03:39:23;;;;;;;0.05;0.05;;;8.00;99.90;;;;;;4999096;28;20049;-62
2021/12/14 03:41:59;;;;;;;0.10;0.10;;;7.70;99.90;;;;;;5000464;28;20050;-63
2021/12/14 03:44:32;;;;;;;0.10;0.10;;;7.70;99.90;;;;;;4999846;28;20088;-63
2021/12/14 03:47:25;;;;;;;0.22;0.22;;;7.70;99.90;;;;;;5000378;28;20050;-63
2021/12/14 03:49:58;;;;;;;0.60;0.17;;;7.70;99.90;;;;;;4996006;28;20072;-63
2021/12/14 03:52:30;;;;;;;0.00;0.00;;;7.70;99.90;;;;;;4999474;28;20242;-62
2021/12/14 03:54:59;;;;;;;0.00;0.00;;;7.70;99.90;;;;;;5015247;28;20054;-62
2021/12/14 03:57:25;;;;;;;0.10;0.10;;;7.90;99.90;;;;;;4999821;28;20042;-62
2021/12/14 03:59:51;;;;;;;0.00;0.00;;;7.70;99.90;;;;;;4999794;28;20038;-62
2021/12/14 04:02:17;;;;;;;0.30;0.30;;;7.70;99.90;;;;;;4998861;28;20073;-62
2021/12/14 04:05:03;;;;;;;0.38;0.38;;;7.70;99.90;;;;;;5007925;28;20099;-62
2021/12/14 04:07:30;;;;;;;0.00;0.00;;;7.70;99.90;;;;;;5019543;28;20056;-62
2021/12/14 04:09:56;;;;;;;0.00;0.00;;;8.70;99.90;;;;;;5019819;28;20052;-62
2021/12/14 04:12:23;;;;;;;0.10;0.10;;;7.70;99.90;;;;;;5017370;28;20731;-62
2021/12/14 04:14:55;;;;;;;0.00;0.00;;;7.70;99.90;;;;;;5019622;28;20675;-62
2021/12/14 04:17:24;;;;;;;0.00;0.00;;;7.70;99.90;;;;;;5019466;28;20056;-62
2021/12/14 04:19:51;;;;;;;0.85;0.10;;;7.60;99.90;;;;;;5017276;28;20450;-62
2021/12/14 04:22:25;;;;;;;1.85;1.75;;;8.80;99.90;;;;;;5018528;28;20145;-62
2021/12/14 04:25:00;;;;;;;0.00;0.00;;;7.60;99.90;;;;;;5019467;28;20415;-62
2021/12/14 04:27:29;;;;;;;0.30;0.30;;;7.90;99.90;;;;;;5018346;28;20049;-62
2021/12/14 04:29:58;;;;;;;0.00;0.00;;;7.60;99.90;;;;;;5017869;28;20117;-62
2021/12/14 04:32:24;;;;;;;0.38;0.38;;;7.60;99.90;;;;;;5019050;28;20049;-62
2021/12/14 04:34:52;;;;;;;0.90;0.30;;;7.70;99.90;;;;;;5017946;28;20052;-62
2021/12/14 04:37:20;;;;;;;0.00;0.00;;;8.70;99.90;;;;;;5018331;28;20132;-62
2021/12/14 04:39:52;;;;;;;0.22;0.22;;;7.60;99.90;;;;;;5017860;28;20475;-62
2021/12/14 04:53:44;;;;;;;0.03;0.03;;;7.60;99.90;;;;;;5019016;28;20057;-63
2021/12/14 04:56:15;;;;;;;0.98;0.90;;;7.60;99.90;;;;;;5017366;28;20128;-62
2021/12/14 04:58:45;;;;;;;0.55;0.47;;;8.80;99.90;;;;;;5017522;28;20063;-62
2021/12/14 05:01:12;;;;;;;0.32;0.32;;;7.60;99.90;;;;;;5018536;28;20065;-62
2021/12/14 05:03:52;;;;;;;0.08;0.08;;;7.60;99.90;;;;;;5012675;28;20447;-62
2021/12/14 05:06:22;;;;;;;0.28;0.28;;;7.60;99.90;;;;;;5000270;28;20053;-63
2021/12/14 05:11:22;;;;;;;0.00;0.00;;;7.60;99.90;;;;;;4995767;28;20081;-65
2021/12/14 05:13:52;;;;;;;0.08;0.08;;;7.60;99.90;;;;;;4997283;28;20048;-65
2021/12/14 05:16:24;;;;;;;0.05;0.05;;;7.60;99.90;;;;;;4999083;28;20049;-62
2021/12/14 05:18:54;;;;;;;0.57;0.57;;;8.20;99.90;;;;;;4998428;28;20052;-63
2021/12/14 05:21:31;;;;;;;0.80;0.25;;;8.10;99.90;;;;;;4997004;28;20234;-63
2021/12/14 05:23:58;;;;;;;0.08;0.08;;;7.70;99.90;;;;;;4998802;28;20084;-63
2021/12/14 05:26:24;;;;;;;0.00;0.00;;;8.60;99.90;;;;;;4997981;28;20046;-62
2021/12/14 05:28:50;;;;;;;1.08;1.00;;;7.70;99.90;;;;;;4998676;28;20072;-63
2021/12/14 05:31:16;;;;;;;0.03;0.03;;;7.70;99.90;;;;;;4998570;28;20404;-63
2021/12/14 05:33:42;;;;;;;0.00;0.00;;;7.70;99.90;;;;;;4998281;28;20089;-63
2021/12/14 05:36:13;;;;;;;0.20;0.20;;;9.00;99.90;;;;;;4997225;28;20419;-63
2021/12/14 05:43:06;;;;;;;1.13;0.45;;;7.70;99.90;;;;;;4998962;28;20060;-63
2021/12/14 05:43:54;;;;;;;0.00;0.00;;;7.60;99.90;;;;;;4998947;28;20143;-62
2021/12/14 05:46:22;;;;;;;0.05;0.05;;;8.70;99.90;;;;;;4998617;28;20053;-62
2021/12/14 05:48:47;;;;;;;0.15;0.13;;;8.80;99.90;;;;;;4998578;28;20042;-62
2021/12/14 05:51:13;;;;;;;0.00;0.00;;;7.50;99.90;;;;;;4997252;28;20049;-63
2021/12/14 05:53:43;;;;;;;0.20;0.15;;;7.50;99.90;;;;;;4998717;28;20045;-63
2021/12/14 05:56:13;;;;;;;0.20;0.20;;;7.50;99.90;;;;;;4998523;28;20389;-63
2021/12/14 05:58:39;;;;;;;0.20;0.20;;;7.60;99.90;;;;;;4997700;28;20412;-63
2021/12/14 06:01:08;;;;;;;0.47;0.47;;;7.50;99.90;;;;;;4998037;28;20054;-63
2021/12/14 06:03:39;;;;;;;0.47;0.47;;;7.60;99.90;;;;;;5005205;28;20085;-63
2021/12/14 06:06:17;;;;;;;0.10;0.10;;;7.60;99.90;;;;;;5001140;28;20384;-63
2021/12/14 06:08:43;;;;;;;0.10;0.10;;;7.60;99.90;;;;;;5013407;28;20085;-62
2021/12/14 06:11:19;;;;;;;0.05;0.05;;;7.60;99.90;;;;;;4998253;28;20049;-63
2021/12/14 06:13:46;;;;;;;0.00;0.00;;;7.60;99.90;;;;;;4996168;28;20046;-63
2021/12/14 06:16:25;;;;;;;0.00;0.00;;;7.50;99.90;;;;;;4998169;28;20057;-63
2021/12/14 06:18:52;;;;;;;0.00;0.00;;;7.60;99.90;;;;;;4998391;28;20050;-62
2021/12/14 06:21:29;;;;;;;1.80;1.70;;;7.80;99.90;;;;;;4996634;28;20069;-63
2021/12/14 06:24:05;;;;;;;0.10;0.10;;;7.50;99.90;;;;;;5000912;28;20050;-63
2021/12/14 06:26:36;;;;;;;0.00;0.00;;;8.10;99.90;;;;;;5001440;28;20081;-62
2021/12/14 06:29:26;;;;;;;0.00;0.00;;;8.40;99.90;;;;;;5001927;28;20042;-63
2021/12/14 06:31:53;;;;;;;0.00;0.00;;;7.50;99.90;;;;;;5000460;28;20180;-64
2021/12/14 06:34:21;;;;;;;0.00;0.00;;;7.50;99.90;;;;;;5001596;28;20048;-65
2021/12/14 06:36:51;;;;;;;0.40;0.20;;;7.70;99.90;;;;;;4999986;28;20196;-65
2021/12/14 06:39:19;;;;;;;0.28;0.22;;;7.50;99.90;;;;;;5001576;28;20052;-65
2021/12/14 06:41:44;;;;;;;0.08;0.08;;;7.50;99.90;;;;;;5000602;28;20244;-65
2021/12/14 06:44:10;;;;;;;1.30;0.68;;;7.50;99.90;;;;;;5000085;28;20627;-63
2021/12/14 06:46:40;;;;;;;0.00;0.00;;;7.50;99.90;;;;;;5001690;28;20069;-63
2021/12/14 06:49:14;;;;;;;0.00;0.00;;;8.40;99.90;;;;;;5000208;28;20220;-63
2021/12/14 06:51:43;;;;;;;0.00;0.00;;;7.40;99.90;;;;;;4999630;28;20042;-63
2021/12/14 06:54:12;;;;;;;0.00;0.00;;;7.50;99.90;;;;;;5001153;28;20588;-65
2021/12/14 06:56:38;;;;;;;0.10;0.10;;;7.40;99.90;;;;;;5000566;28;20065;-64
2021/12/14 06:59:13;;;;;;;0.30;0.30;;;7.50;99.90;;;;;;5000990;28;20050;-63
2021/12/14 07:02:00;;;;;;;;;;;7.50;99.90;;;;;;5000284;28;20616;-63
2021/12/14 07:04:29;;;;;;;0.00;0.00;;;7.50;99.90;;;;;;5012166;28;19925;-64
2021/12/14 07:06:58;;;;;;;0.00;0.00;;;7.50;99.90;;;;;;5000192;28;20172;-63
2021/12/14 07:09:31;;;;;;;0.00;0.00;;;8.10;99.90;;;;;;4999344;28;20124;-63
2021/12/14 07:12:06;;;;;;;0.10;0.10;;;7.50;99.90;;;;;;5000991;28;20050;-63
2021/12/14 07:14:32;;;;;;;0.00;0.00;;;7.50;99.90;;;;;;4999806;28;20081;-63
2021/12/14 07:17:02;;;;;;;0.00;0.00;;;7.70;99.90;;;;;;5001155;28;20080;-62
2021/12/14 07:19:43;;;;;;;0.40;0.40;;;7.50;99.90;;;;;;5001237;28;20106;-63
2021/12/14 07:22:25;;;;;;;0.00;0.00;;;7.50;99.90;;;;;;5000194;28;20381;-62
2021/12/14 07:25:05;;;;;;;1.08;0.75;;;7.50;99.90;;;;;;5000674;28;20054;-62
2021/12/14 07:27:36;;;;;;;0.20;0.20;;;7.50;99.90;;;;;;5001028;28;20050;-63
2021/12/14 07:30:14;;;;;;;0.50;0.45;;;7.60;99.90;;;;;;5000123;28;20141;-62
2021/12/14 07:32:48;;;;;;;3.60;0.95;;;7.60;99.90;;;;;;5000651;28;20046;-62
2021/12/14 07:35:16;;;;;;;;;;;7.60;99.90;;;;;;4999418;28;20066;-63
2021/12/14 07:37:43;;;;;;;0.30;0.30;;;7.70;99.90;;;;;;5000637;28;20000;-63
2021/12/14 07:40:09;;;;;;;0.00;0.00;;;7.60;99.90;;;;;;5000293;28;20050;-62
2021/12/14 07:42:35;;;;;;;0.05;0.05;;;7.60;99.90;;;;;;5000344;28;20132;-62
2021/12/14 07:45:01;;;;;;;0.63;0.35;;;7.60;99.90;;;;;;4999649;28;20130;-62
2021/12/14 07:47:26;;;;;;;0.00;0.00;;;7.60;99.90;;;;;;5000272;28;20476;-63
2021/12/14 07:49:54;;;;;;;0.20;0.20;;;7.70;99.90;;;;;;4998762;28;20073;-62
2021/12/14 07:52:28;;;;;;;0.00;0.00;;;7.60;99.90;;;;;;4998601;28;20102;-63
2021/12/14 07:54:59;;;;;;;0.15;0.15;;;7.60;99.90;;;;;;5000000;28;20049;-62
2021/12/14 07:57:35;;;;;;;0.13;0.13;;;7.60;99.90;;;;;;4999597;28;20052;-62
2021/12/14 08:00:21;;;;;;;0.03;0.03;;;7.70;99.90;;;;;;4997680;28;20054;-64
2021/12/14 08:02:50;;;;;;;0.10;0.10;;;7.70;99.90;;;;;;5001924;28;20108;-63
2021/12/14 08:05:26;;;;;;;0.03;0.03;;;9.00;99.90;;;;;;5007800;28;20061;-63
2021/12/14 08:08:09;;;;;;;0.15;0.15;;;7.80;99.90;;;;;;4999633;28;20459;-63
2021/12/14 08:10:40;;;;;;;0.00;0.00;;;7.80;99.90;;;;;;4999842;28;20044;-64
2021/12/14 08:13:13;;;;;;;0.30;0.30;;;7.80;99.90;;;;;;4998979;28;20739;-63
2021/12/14 08:15:49;;;;;;;0.17;0.17;;;7.80;99.90;;;;;;4999993;28;20049;-64
2021/12/14 08:18:27;;;;;;;1.02;1.00;;;7.80;99.90;;;;;;4999010;28;20289;-65
2021/12/14 08:20:57;;;;;;;0.22;0.22;;;7.80;99.90;;;;;;5014152;28;20100;-65
2021/12/14 08:23:27;;;;;;;0.47;0.47;;;7.80;99.90;;;;;;4999969;28;20455;-65
2021/12/14 08:25:58;;;;;;;0.38;0.38;;;7.70;99.90;;;;;;4998667;28;20180;-63
2021/12/14 08:28:24;;;;;;;0.43;0.20;;;7.70;99.90;;;;;;4999361;28;20037;-64
2021/12/14 08:31:01;;;;;;;0.47;0.47;;;7.80;99.90;;;;;;4999382;28;20077;-65
2021/12/14 08:33:29;;;;;;;0.68;0.20;;;7.70;99.90;;;;;;4998413;28;20128;-65
2021/12/14 08:35:59;;;;;;;0.08;0.08;;;7.70;99.90;;;;;;4999031;28;20057;-65
2021/12/14 08:38:27;;;;;;;0.00;0.00;;;7.70;99.90;;;;;;4999466;28;20412;-65
2021/12/14 08:40:59;;;;;;;0.55;0.55;;;7.80;99.90;;;;;;4998398;28;20099;-65
2021/12/14 08:43:31;;;;;;;0.00;0.00;;;7.80;99.90;;;;;;4999328;28;20042;-64
2021/12/14 08:46:09;;;;;;;0.55;0.55;;;7.80;99.90;;;;;;4998483;28;20419;-64
2021/12/14 08:48:42;;;;;;;0.00;0.00;;;8.00;99.90;;;;;;4997411;28;20050;-65
2021/12/14 08:51:14;;;;;;;0.75;0.75;;;7.80;99.90;;;;;;4998228;28;20077;-63
2021/12/14 08:53:45;;;;;;;0.57;0.20;;;7.80;99.90;;;;;;4997681;28;20129;-63
2021/12/14 08:56:12;;;;;;;0.10;0.10;;;7.80;99.90;;;;;;4999279;28;20053;-64
2021/12/14 08:58:39;;;;;;;0.00;0.00;;;7.80;99.90;;;;;;4999311;28;20054;-65
2021/12/14 09:01:14;;;;;;;0.63;0.57;;;7.80;99.90;;;;;;4997649;28;20096;-65
2021/12/14 09:03:56;;;;;;;0.13;0.13;;;7.80;99.90;;;;;;5006464;28;20053;-65
2021/12/14 09:06:28;;;;;;;0.22;0.22;;;7.80;99.90;;;;;;4998654;28;20054;-65
2021/12/14 09:08:53;;;;;;;0.00;0.00;;;7.80;99.90;;;;;;4998056;28;20066;-65
2021/12/14 09:11:23;;;;;;;0.20;0.20;;;7.80;99.90;;;;;;4998757;28;20717;-65
2021/12/14 09:13:48;;;;;;;0.10;0.10;;;7.90;99.90;;;;;;4997597;28;20049;-66
2021/12/14 09:16:19;;;;;;;0.10;0.10;;;7.80;99.90;;;;;;4998785;28;20065;-65
2021/12/14 09:18:53;;;;;;;0.10;0.10;;;7.90;99.90;;;;;;5000289;28;20054;-65
2021/12/14 09:21:30;;;;;;;0.50;0.50;;;9.00;99.90;;;;;;5000399;28;20060;-67
2021/12/14 09:24:00;;;;;;;0.10;0.10;;;7.90;99.90;;;;;;5014546;28;20070;-65
2021/12/14 09:26:31;;;;;;;0.00;0.00;;;7.80;99.90;;;;;;5018506;28;20041;-64
2021/12/14 09:28:57;;;;;;;0.40;0.40;;;7.90;99.90;;;;;;5018034;28;20116;-63
2021/12/14 09:31:31;;;;;;;0.00;0.00;;;8.20;99.90;;;;;;5001031;28;20461;-63
2021/12/14 09:33:59;;;;;;;0.10;0.10;;;7.90;99.90;;;;;;5001285;28;20115;-64
2021/12/14 09:36:28;;;;;;;0.57;0.55;;;7.90;99.90;;;;;;5017805;28;20077;-62
2021/12/14 09:38:58;;;;;;;0.65;0.65;;;8.10;99.90;;;;;;5017032;28;20049;-63
2021/12/14 09:41:28;;;;;;;0.00;0.00;;;8.00;99.90;;;;;;5017949;28;20041;-63
2021/12/14 09:43:55;;;;;;;0.13;0.13;;;8.00;99.90;;;;;;5018413;28;20056;-63
2021/12/14 09:46:22;;;;;;;0.30;0.22;;;8.00;99.90;;;;;;5016751;28;20092;-63
2021/12/14 09:48:55;;;;;;;0.13;0.13;;;8.00;99.90;;;;;;5017534;28;20060;-63
2021/12/14 09:51:49;;;;;;;0.30;0.30;;;8.00;99.90;;;;;;5015982;28;20057;-64
2021/12/14 09:54:19;;;;;;;0.00;0.00;;;8.00;99.90;;;;;;5017938;28;20049;-65
2021/12/14 09:57:13;;;;;;;0.35;0.35;;;8.00;99.90;;;;;;5017055;28;20046;-66
2021/12/14 09:59:39;;;;;;;0.22;0.20;;;8.10;99.90;;;;;;5018930;28;20057;-67
2021/12/14 10:02:26;;;;;;;0.75;0.40;;;8.00;99.90;;;;;;5020155;28;20072;-67
2021/12/14 10:04:57;;;;;;;0.10;0.10;;;8.10;99.90;;;;;;5007582;28;20914;-66
2021/12/14 10:07:24;;;;;;;0.03;0.03;;;8.50;99.90;;;;;;5008023;28;20549;-67
2021/12/14 10:09:53;;;;;;;0.25;0.25;;;8.10;99.90;;;;;;5017766;28;20045;-67
2021/12/14 10:14:53;;;;;;;0.10;0.10;;;9.10;99.90;;;;;;5022642;28;20529;-66
2021/12/14 10:17:22;;;;;;;1.25;1.17;;;9.10;99.90;;;;;;5025096;28;20033;-65
2021/12/14 10:19:49;;;;;;;0.13;0.13;;;9.30;99.90;;;;;;5037609;28;21204;-65
2021/12/14 10:22:23;;;;;;;0.22;0.22;;;8.90;99.90;;;;;;5040620;28;20073;-66
2021/12/14 10:24:51;;;;;;;;;;;8.10;99.90;;;;;;5009942;28;20071;-66
2021/12/14 10:27:19;;;;;;;1.05;0.43;;;8.10;99.90;;;;;;5020467;28;19921;-65
2021/12/14 10:29:45;;;;;;;0.00;0.00;;;8.10;99.90;;;;;;5019803;28;20049;-66
2021/12/14 10:32:17;;;;;;;0.15;0.15;;;8.60;99.90;;;;;;5019872;28;20132;-66
2021/12/14 10:34:49;;;;;;;0.00;0.00;;;8.20;99.90;;;;;;5018505;28;20057;-66
2021/12/14 10:37:27;;;;;;;0.30;0.30;;;8.10;99.90;;;;;;5009193;28;20108;-66
2021/12/14 10:45:07;;;;;;;0.70;0.47;;;8.20;99.90;;;;;;5000975;28;20054;-67
2021/12/14 10:47:34;;;;;;;0.63;0.10;;;7.80;99.90;;;;;;5000098;28;20053;-64
2021/12/14 10:50:06;;;;;;;0.00;0.00;;;8.20;99.90;;;;;;5000022;28;20416;-83
2021/12/14 10:52:32;;;;;;;0.10;0.10;;;8.30;99.90;;;;;;5000821;28;20107;-69
2021/12/14 10:55:13;;;;;;;0.30;0.30;;;8.30;99.90;;;;;;5001429;28;20081;-77
2021/12/14 10:57:39;;;;;;;0.10;0.10;;;8.30;99.90;;;;;;4999280;28;20045;-77
2021/12/14 11:00:32;;;;;;;0.00;0.00;;;8.40;99.90;;;;;;4999670;28;20057;-75
2021/12/14 11:03:03;;;;;;;0.00;0.00;;;8.30;99.90;;;;;;5008981;28;20049;-74
2021/12/14 11:05:32;;;;;;;1.52;0.52;;;8.30;99.90;;;;;;5018878;28;20084;-80
2021/12/14 11:07:58;;;;;;;0.25;0.25;;;8.30;99.90;;;;;;5019315;28;20049;-76
2021/12/14 11:10:32;;;;;;;0.90;0.45;;;8.30;99.90;;;;;;5018510;28;20538;-79
2021/12/14 11:13:08;;;;;;;1.17;0.57;;;8.30;99.90;;;;;;5019044;28;20052;-74
2021/12/14 11:15:44;;;;;;;0.13;0.13;;;8.30;99.90;;;;;;5002960;28;20060;-76
2021/12/14 11:18:15;;;;;;;0.00;0.00;;;8.30;99.90;;;;;;5019011;28;20080;-75
2021/12/14 11:20:53;;;;;;;0.00;0.00;;;8.40;99.90;;;;;;5001691;28;20057;-72
2021/12/14 11:23:26;;;;;;;0.43;0.40;;;8.40;99.90;;;;;;5018102;28;20113;-74
2021/12/14 11:25:51;;;;;;;0.17;0.17;;;8.40;99.90;;;;;;5020035;28;20045;-70
2021/12/14 11:28:30;;;;;;;0.38;0.20;;;8.40;99.90;;;;;;5014085;28;20029;-69
2021/12/14 11:31:19;;;;;;;0.00;0.00;;;8.40;99.90;;;;;;4997492;28;20054;-68
2021/12/14 11:33:50;;;;;;;0.13;0.13;;;8.40;99.90;;;;;;4997158;28;20049;-68
2021/12/14 11:36:34;;;;;;;0.00;0.00;;;8.40;99.90;;;;;;4997464;28;20038;-67
2021/12/14 11:39:08;;;;;;;0.40;0.40;;;8.30;99.90;;;;;;4998696;28;20053;-67
2021/12/14 11:41:43;;;;;;;0.22;0.22;;;8.30;99.90;;;;;;4997666;28;20049;-68
2021/12/14 11:44:20;;;;;;;0.00;0.00;;;8.70;99.90;;;;;;4998640;28;20408;-67
2021/12/14 11:47:22;;;;;;;0.00;0.00;;;8.30;99.90;;;;;;4981442;28;20408;-66
2021/12/14 11:50:06;;;;;;;0.40;0.40;;;8.30;99.90;;;;;;4996997;28;20053;-66
2021/12/14 11:52:50;;;;;;;0.30;0.25;;;8.30;99.90;;;;;;4984388;28;20104;-67
2021/12/14 11:55:19;;;;;;;0.08;0.08;;;8.30;99.90;;;;;;4998010;28;20058;-66
2021/12/14 11:57:45;;;;;;;0.47;0.47;;;8.30;99.90;;;;;;4996926;28;20046;-66
2021/12/14 12:00:18;;;;;;;0.80;0.30;;;9.50;99.90;;;;;;4999439;28;20041;-66
2021/12/14 12:02:43;;;;;;;0.17;0.17;;;8.30;99.90;;;;;;5001424;28;20060;-67
2021/12/14 12:05:20;;;;;;;0.08;0.08;;;8.30;99.90;;;;;;5004694;28;20053;-67
2021/12/14 12:10:43;;;;;;;0.60;0.60;;;8.30;99.90;;;;;;4997481;28;20085;-66
2021/12/14 12:13:08;;;;;;;1.45;0.93;;;8.30;99.90;;;;;;4997443;28;20054;-67
2021/12/14 12:15:39;;;;;;;0.10;0.10;;;8.30;99.90;;;;;;4997804;28;20049;-67
2021/12/14 12:18:05;;;;;;;0.00;0.00;;;8.30;99.90;;;;;;4996441;28;20053;-69
2021/12/14 12:20:37;;;;;;;0.20;0.20;;;8.30;99.90;;;;;;4997162;28;20646;-67
2021/12/14 12:23:09;;;;;;;0.30;0.30;;;8.80;99.90;;;;;;4998017;28;20571;-67
2021/12/14 12:26:09;;;;;;;0.03;0.03;;;8.30;99.90;;;;;;5013153;28;20061;-67
2021/12/14 12:28:42;;;;;;;0.20;0.20;;;8.30;99.90;;;;;;4998069;28;20444;-67
2021/12/14 12:31:12;;;;;;;0.00;0.00;;;8.80;99.90;;;;;;4997079;28;20094;-67
2021/12/14 12:33:55;;;;;;;0.00;0.00;;;8.30;99.90;;;;;;4997515;28;20050;-67
2021/12/14 12:36:23;;;;;;;0.00;0.00;;;8.30;99.90;;;;;;5011666;28;20045;-66
2021/12/14 12:38:51;;;;;;;0.10;0.10;;;8.30;99.90;;;;;;5013822;28;20097;-67
2021/12/14 12:41:33;;;;;;;0.00;0.00;;;8.80;99.90;;;;;;4998811;28;20204;-66
2021/12/14 12:44:21;;;;;;;0.35;0.35;;;8.30;99.90;;;;;;4999262;28;20050;-67
2021/12/14 12:46:58;;;;;;;0.03;0.03;;;8.80;99.90;;;;;;4997498;28;20046;-66
2021/12/14 12:49:40;;;;;;;0.00;0.00;;;8.30;99.90;;;;;;4997858;28;20060;-66
2021/12/14 12:52:09;;;;;;;0.00;0.00;;;8.30;99.90;;;;;;4997721;28;20600;-67
2021/12/14 12:54:58;;;;;;;0.00;0.00;;;9.40;99.90;;;;;;5012971;28;20440;-67
2021/12/14 12:57:40;;;;;;;0.10;0.10;;;8.30;99.90;;;;;;4997336;28;20456;-66
2021/12/14 13:00:37;;;;;;;0.00;0.00;;;8.30;99.90;;;;;;4997131;28;20100;-67
2021/12/14 13:03:26;;;;;;;0.00;0.00;;;8.30;99.90;;;;;;4998039;28;20112;-67
2021/12/14 13:06:00;;;;;;;0.00;0.00;;;8.30;99.90;;;;;;5009704;28;20053;-66
2021/12/14 13:08:40;;;;;;;0.00;0.00;;;8.40;99.90;;;;;;5015417;28;20060;-67
2021/12/14 13:11:16;;;;;;;0.00;0.00;;;8.30;99.90;;;;;;5016801;28;20098;-67
2021/12/14 13:14:13;;;;;;;0.00;0.00;;;8.30;99.90;;;;;;5017375;28;20099;-67
2021/12/14 13:16:45;;;;;;;0.00;0.00;;;8.30;99.90;;;;;;5016280;28;20323;-66
2021/12/14 13:19:23;;;;;;;0.25;0.25;;;8.30;99.90;;;;;;5014957;28;20048;-66
2021/12/14 13:21:54;;;;;;;0.00;0.00;;;8.60;99.90;;;;;;5017517;28;20064;-67
2021/12/14 13:24:25;;;;;;;0.00;0.00;;;8.30;99.90;;;;;;5016622;28;20053;-67
2021/12/14 13:26:59;;;;;;;0.52;0.10;;;8.30;99.90;;;;;;5015717;28;20658;-67
2021/12/14 13:29:30;;;;;;;0.00;0.00;;;8.30;99.90;;;;;;5016587;28;20054;-67
2021/12/14 13:32:19;;;;;;;0.00;0.00;;;8.30;99.90;;;;;;4999729;28;20049;-66
2021/12/14 13:34:49;;;;;;;0.10;0.10;;;8.60;99.90;;;;;;5019165;28;20141;-67
2021/12/14 13:37:20;;;;;;;0.00;0.00;;;8.40;99.90;;;;;;5020020;28;20203;-66
2021/12/14 13:39:47;;;;;;;0.20;0.20;;;8.30;99.90;;;;;;5019758;28;20059;-67
2021/12/14 13:42:29;;;;;;;0.00;0.00;;;8.30;99.90;;;;;;5021457;28;20049;-66
2021/12/14 13:44:55;;;;;;;0.00;0.00;;;8.40;99.90;;;;;;5019707;28;20337;-66
2021/12/14 13:47:25;;;;;;;0.17;0.17;;;9.00;99.90;;;;;;5020138;28;20053;-66
2021/12/14 13:49:53;;;;;;;0.00;0.00;;;8.40;99.90;;;;;;5020530;28;20702;-66
2021/12/14 13:52:19;;;;;;;0.00;0.00;;;8.40;99.90;;;;;;5021419;28;20132;-67
2021/12/14 13:55:07;;;;;;;0.13;0.13;;;8.40;99.90;;;;;;5019264;28;20160;-67
2021/12/14 13:57:35;;;;;;;0.00;0.00;;;8.50;99.90;;;;;;5020321;28;20049;-67